Jonesboro Municipal Airport
KJBR : rendu visible

Aérodrome :











RETROUVEZ-NOUS SUR...

 
LOGIN :

S'inscrire | Disclaimer

   EN    FR    IT 

 









Légende :    VFR   VFR Marginal   IFR   IFR Intensif   IFR Très Intensif
Visi : 
Plafond : 
>= 8 km
>= 3000ft
5 à 8 km
1000 à 3000 ft
1500m à 5 km
500 à 1000 ft
800 à 1500m
200 à 500 ft
< 800m
< 200 ft
Symboles :   Orages  Brouillard  Fortes neiges  Fortes précipitations  Vent > 20 kt






- Altitude de l'aérodrome : 262 ft
- Code IATA : JBR


KJBR - Jonesboro Municipal

DERNIER METAR :
  • 192153Z AUTO 04014KT 10SM CLR 09/M01 A3039 RMK AO2 SLP291 T00891006

METARs EXPIRÉS :
  • 192053Z AUTO 06014G22KT 10SM CLR 09/00 A3039 RMK AO2 SLP293 T00890000 56027
  • 191953Z AUTO 03014G22KT 10SM CLR 08/00 A3042 RMK AO2 SLP300 T00830000

TAF KJBR
Valide du 19 à 18h jusqu'au 20 à 18h UTC


191737Z 1918/2018 04010KT P6SM BKN250
FM200600 04010KT P6SM VCSH OVC100
FM201200 02014G20KT P6SM VCSH OVC035



MET'MAP, la Météo Aéronautique d'un coup d'oeil ! - Copyright ORBIFLY Décembre 2007 - Disclaimer

ORBIFLY MET'MAP TEAM :

Programmation & Développement : Alexandra Zaïnal
Sur une idée originale de : Baudouin d'Aumeries
Assistance à la programmation : Marc-Olivier Méhu
Soutien technique & logistique : Manuel Goepfert

Contact : metmap@orbifly.com




SOURCES & CREDITS :

   NOAA       Earth
Advisory